Time;durP1;ratioP1;P1;durP2;ratioP2;P2;SDS_P1;SDS_P2;PMS_P1;PMS_P2;Temp;Humidity;BMP_temperature;BMP_pressure;BME280_temperature;BME280_humidity;BME280_pressure;Samples;Min_cycle;Max_cycle;Signal;HPM_P1;HPM_P2
2021/12/28 00:01:19;;;;;;;25.10;16.90;;;;;;;-6.89;78.78;99062.70;434883;1311;142904;-63
2021/12/28 00:11:25;;;;;;;18.00;11.40;;;;;;;-6.83;79.00;99055.02;434728;1311;142644;-63
2021/12/28 00:21:31;;;;;;;18.50;11.10;;;;;;;-6.68;79.40;99056.52;432402;1312;143702;-63
2021/12/28 00:31:35;;;;;;;;;;;;;;;-6.60;79.55;99057.86;433973;1312;142711;-63
2021/12/28 00:41:41;;;;;;;15.40;10.50;;;;;;;-6.58;79.51;99054.61;434873;1312;128809;-63
2021/12/28 00:51:47;;;;;;;19.40;11.70;;;;;;;-6.57;79.58;99048.50;433519;1314;142677;-63
2021/12/28 01:01:53;;;;;;;16.60;10.00;;;;;;;-6.58;79.57;99050.02;433648;1313;142971;-62
2021/12/28 01:12:01;;;;;;;17.40;11.30;;;;;;;-6.61;79.62;99045.43;433012;1313;142891;-63
2021/12/28 01:22:07;;;;;;;19.20;12.70;;;;;;;-6.58;79.72;99039.98;434414;1306;196964;-63
2021/12/28 01:32:14;;;;;;;18.70;10.90;;;;;;;-6.60;79.77;99037.93;433656;1311;142653;-64
2021/12/28 01:42:19;;;;;;;16.80;9.80;;;;;;;-6.61;79.70;99025.02;433941;1308;144584;-63
2021/12/28 01:52:25;;;;;;;14.90;10.60;;;;;;;-6.69;79.65;99020.77;433551;1310;198164;-64
2021/12/28 02:02:31;;;;;;;13.40;8.20;;;;;;;-6.70;79.83;98989.95;434565;1308;142984;-64
2021/12/28 02:12:37;;;;;;;15.50;9.70;;;;;;;-6.72;79.77;98967.34;433780;1311;142236;-64
2021/12/28 02:22:43;;;;;;;15.10;10.10;;;;;;;-6.73;79.76;98965.98;432975;1308;143051;-63
2021/12/28 02:32:51;;;;;;;11.80;8.60;;;;;;;-6.77;79.90;98962.08;432846;1311;143501;-63
2021/12/28 02:42:58;;;;;;;14.90;8.90;;;;;;;-6.80;80.02;98959.87;433627;1310;142342;-64
2021/12/28 02:53:04;;;;;;;13.30;7.90;;;;;;;-6.77;80.23;98952.70;433974;1311;142912;-63
2021/12/28 03:03:13;;;;;;;16.70;10.20;;;;;;;-6.73;80.27;98947.08;432746;1311;143083;-63
2021/12/28 03:13:23;;;;;;;14.30;8.50;;;;;;;-6.69;80.37;98942.30;434370;1311;145222;-64
2021/12/28 03:23:29;;;;;;;16.00;10.50;;;;;;;-6.62;80.55;98935.10;433157;1313;142821;-64
2021/12/28 03:33:38;;;;;;;11.40;9.20;;;;;;;-6.52;80.63;98930.64;433961;1311;142588;-64
2021/12/28 03:43:47;;;;;;;16.40;9.50;;;;;;;-6.41;80.72;98922.89;434813;1311;143077;-64
2021/12/28 03:53:53;;;;;;;14.20;9.50;;;;;;;-6.31;80.75;98905.13;433102;1312;142995;-64
2021/12/28 04:03:59;;;;;;;12.80;9.10;;;;;;;-6.25;80.88;98904.23;433979;1311;144088;-64
2021/12/28 04:14:05;;;;;;;;;;;;;;;-6.20;80.98;98911.02;428634;1314;142910;-65
2021/12/28 04:24:10;;;;;;;17.60;10.70;;;;;;;-6.17;80.99;98914.92;434295;1311;129502;-64
2021/12/28 04:34:15;;;;;;;;;;;;;;;-6.15;81.15;98918.14;433417;1309;143963;-64
2021/12/28 04:44:24;;;;;;;17.60;12.20;;;;;;;-6.10;81.23;98905.16;429624;1313;131268;-63
2021/12/28 04:54:30;;;;;;;17.00;10.30;;;;;;;-6.05;81.14;98898.99;432827;1313;142707;-64
2021/12/28 05:04:34;;;;;;;;;;;;;;;-6.03;81.17;98906.64;420514;1311;5090176;-64
2021/12/28 05:14:42;;;;;;;22.20;12.50;;;;;;;-6.05;81.23;98910.58;434980;1311;132264;-64
2021/12/28 05:24:47;;;;;;;20.60;13.50;;;;;;;-6.06;81.34;98906.49;434024;1312;143387;-63
2021/12/28 05:34:53;;;;;;;24.80;15.00;;;;;;;-6.07;81.28;98892.18;422393;1311;143533;-65
2021/12/28 05:45:02;;;;;;;20.30;14.80;;;;;;;-6.08;81.21;98890.83;426920;1311;143253;-64
2021/12/28 05:55:11;;;;;;;20.20;13.40;;;;;;;-6.08;81.37;98883.16;434776;1312;146390;-63
2021/12/28 06:05:17;;;;;;;21.30;14.20;;;;;;;-6.07;81.28;98882.81;434516;1313;143994;-63
2021/12/28 06:15:22;;;;;;;24.70;15.10;;;;;;;-6.06;81.49;98894.73;431893;1313;165853;-64
2021/12/28 06:25:28;;;;;;;19.70;13.10;;;;;;;-6.05;81.55;98880.92;434760;1314;143166;-64
2021/12/28 06:35:34;;;;;;;20.70;13.10;;;;;;;-5.99;81.41;98884.09;433531;1313;143737;-62
2021/12/28 06:45:41;;;;;;;17.10;12.00;;;;;;;-5.94;81.48;98881.66;434094;1313;142644;-64
2021/12/28 06:55:47;;;;;;;19.00;12.90;;;;;;;-5.95;81.46;98886.27;433201;1313;144281;-63
2021/12/28 07:05:51;;;;;;;;;;;;;;;-5.92;81.42;98895.09;434829;1312;142645;-63
2021/12/28 07:15:57;;;;;;;23.80;13.90;;;;;;;-5.87;81.39;98903.25;429456;1316;129134;-64
2021/12/28 07:26:01;;;;;;;;;;;;;;;-5.82;81.33;98902.69;433855;1312;143431;-64
2021/12/28 07:36:08;;;;;;;24.90;14.30;;;;;;;-5.72;81.31;98891.17;423756;1313;129415;-64
2021/12/28 07:46:14;;;;;;;20.00;13.00;;;;;;;-5.64;81.16;98876.45;434491;1313;143125;-64
2021/12/28 07:56:20;;;;;;;20.10;12.60;;;;;;;-5.52;81.11;98868.48;434741;1311;142946;-64
2021/12/28 08:06:26;;;;;;;22.40;12.30;;;;;;;-5.45;80.79;98851.52;433571;1313;144057;-64
2021/12/28 08:16:32;;;;;;;20.60;13.10;;;;;;;-5.31;80.94;98856.31;434452;1313;142942;-68
2021/12/28 08:26:38;;;;;;;19.80;14.30;;;;;;;-5.17;80.70;98855.81;433153;1313;144042;-62
2021/12/28 08:36:44;;;;;;;21.70;11.80;;;;;;;-5.09;80.37;98848.89;433584;1313;144484;-65
2021/12/28 08:46:50;;;;;;;17.50;11.80;;;;;;;-4.90;80.24;98857.38;425830;1309;142227;-60
2021/12/28 08:56:56;;;;;;;16.70;11.70;;;;;;;-4.97;80.13;98855.06;434785;1312;141979;-60
2021/12/28 09:07:02;;;;;;;17.70;11.30;;;;;;;-4.93;80.06;98843.57;433410;1313;144350;-61
2021/12/28 09:17:08;;;;;;;14.30;10.80;;;;;;;-4.74;79.97;98826.77;433915;1313;143079;-61
2021/12/28 09:27:14;;;;;;;19.20;13.30;;;;;;;-4.65;79.71;98828.52;425472;1313;142645;-61
2021/12/28 09:37:20;;;;;;;17.80;11.70;;;;;;;-4.63;79.62;98821.14;434163;1313;197092;-63
2021/12/28 09:47:27;;;;;;;22.30;13.50;;;;;;;-4.37;79.43;98806.57;432939;1312;143237;-63
2021/12/28 09:57:32;;;;;;;16.90;11.90;;;;;;;-4.24;79.12;98805.02;432238;1313;142834;-58
2021/12/28 10:07:46;;;;;;;17.10;13.20;;;;;;;-4.17;78.82;98796.35;426530;1311;141656;-63
2021/12/28 10:17:53;;;;;;;16.40;12.60;;;;;;;-4.20;78.54;98778.46;434458;1312;142605;-61
2021/12/28 10:28:02;;;;;;;17.50;12.90;;;;;;;-4.15;78.59;98782.98;432095;1312;142709;-63
2021/12/28 10:38:10;;;;;;;19.80;12.00;;;;;;;-4.18;78.45;98770.88;433833;1311;154514;-66
2021/12/28 10:48:18;;;;;;;21.40;14.40;;;;;;;-4.21;78.49;98763.59;430566;1313;142712;-62
2021/12/28 10:58:35;;;;;;;20.20;14.00;;;;;;;-4.13;78.38;98763.46;429878;1313;143284;-67
2021/12/28 11:08:44;;;;;;;16.40;13.00;;;;;;;-4.12;78.23;98759.85;434512;1311;143684;-61
2021/12/28 11:18:52;;;;;;;19.50;12.70;;;;;;;-4.29;78.10;98735.53;431472;1310;142822;-66
2021/12/28 11:29:01;;;;;;;18.90;13.70;;;;;;;-4.35;78.37;98718.54;433438;1309;143193;-59
2021/12/28 11:39:11;;;;;;;15.80;12.40;;;;;;;-4.16;78.27;98719.92;432746;1311;143057;-60
2021/12/28 11:49:26;;;;;;;14.10;10.60;;;;;;;-4.13;78.08;98706.01;430181;1308;143808;-61
2021/12/28 11:59:32;;;;;;;14.90;10.90;;;;;;;-4.26;78.06;98692.23;432449;1308;144048;-60
2021/12/28 12:10:06;;;;;;;16.50;11.00;;;;;;;-4.33;78.03;98691.50;427011;1311;143507;-59
2021/12/28 12:20:30;;;;;;;15.10;10.40;;;;;;;-4.46;78.08;98677.39;432533;1311;144421;-59
2021/12/28 12:30:48;;;;;;;18.40;12.70;;;;;;;-4.45;78.30;98661.48;431422;1309;142377;-63
2021/12/28 12:40:56;;;;;;;20.50;13.70;;;;;;;-4.41;78.56;98647.22;434379;1313;144657;-62
2021/12/28 12:51:31;;;;;;;16.30;12.40;;;;;;;-4.40;78.36;98640.36;434111;1310;163978;-59
2021/12/28 13:02:02;;;;;;;17.50;13.10;;;;;;;-4.56;78.30;98637.92;434530;1311;297447;-58
2021/12/28 13:12:10;;;;;;;19.10;12.60;;;;;;;-4.70;78.47;98637.66;429457;1311;142963;-61
2021/12/28 13:22:17;;;;;;;19.70;12.20;;;;;;;-4.80;78.59;98641.23;434111;1310;142708;-60
2021/12/28 13:32:25;;;;;;;16.90;13.20;;;;;;;-4.84;78.85;98623.73;433421;1310;143057;-59
2021/12/28 13:42:31;;;;;;;17.20;12.30;;;;;;;-4.82;78.96;98607.27;433803;1309;146066;-60
2021/12/28 13:52:48;;;;;;;16.70;11.70;;;;;;;-4.98;78.98;98593.89;432894;1312;143135;-61
2021/12/28 14:03:00;;;;;;;21.00;13.50;;;;;;;-5.19;79.15;98591.34;433066;1313;143688;-59
2021/12/28 14:13:09;;;;;;;17.90;12.50;;;;;;;-5.33;79.24;98580.80;433048;1313;154839;-65
2021/12/28 14:23:26;;;;;;;16.40;13.10;;;;;;;-5.47;79.48;98569.08;433490;1307;145403;-69
2021/12/28 14:33:48;;;;;;;16.70;12.40;;;;;;;-5.60;79.76;98564.16;433556;1309;142961;-70
2021/12/28 14:44:07;;;;;;;22.90;15.30;;;;;;;-5.71;80.01;98546.07;429056;1311;143391;-72
2021/12/28 14:54:16;;;;;;;19.60;13.80;;;;;;;-5.83;80.32;98546.06;423185;1312;142474;-66
2021/12/28 15:04:23;;;;;;;24.80;16.40;;;;;;;-5.95;80.59;98559.02;429179;1306;142913;-75
2021/12/28 15:14:30;;;;;;;22.50;16.80;;;;;;;-6.03;80.66;98567.16;419993;1313;142692;-66
2021/12/28 15:24:39;;;;;;;24.00;16.20;;;;;;;-6.11;80.84;98553.11;431695;1311;143619;-66
2021/12/28 15:34:45;;;;;;;22.40;15.10;;;;;;;-6.15;80.97;98539.55;434415;1313;142963;-59
2021/12/28 15:44:51;;;;;;;24.50;17.60;;;;;;;-6.17;81.14;98532.77;434318;1308;144188;-60
2021/12/28 15:55:00;;;;;;;22.60;15.90;;;;;;;-6.21;81.21;98519.70;433764;1313;143557;-62
2021/12/28 16:05:08;;;;;;;21.50;14.40;;;;;;;-6.23;81.30;98502.52;434316;1309;144141;-61
2021/12/28 16:15:14;;;;;;;18.20;13.90;;;;;;;-6.24;81.25;98478.84;420756;1313;142983;-61
2021/12/28 16:25:20;;;;;;;24.40;16.50;;;;;;;-6.26;81.32;98475.13;429875;1313;144017;-62
2021/12/28 16:35:26;;;;;;;24.60;17.20;;;;;;;-6.25;81.25;98467.44;429816;1309;143488;-61
2021/12/28 16:45:36;;;;;;;22.60;14.60;;;;;;;-6.22;81.42;98474.05;427698;1313;143639;-62
2021/12/28 16:55:43;;;;;;;24.30;15.30;;;;;;;-6.15;81.34;98478.21;433460;1309;143739;-61
2021/12/28 17:05:49;;;;;;;28.90;17.90;;;;;;;-6.04;81.39;98475.15;434542;1310;142604;-61
2021/12/28 17:15:56;;;;;;;24.20;17.50;;;;;;;-5.96;81.35;98472.45;421456;1311;142833;-62
2021/12/28 17:26:02;;;;;;;28.10;19.30;;;;;;;-5.95;81.24;98484.03;425873;1311;155803;-62
2021/12/28 17:36:09;;;;;;;26.50;17.50;;;;;;;-5.91;81.29;98484.98;432344;1312;197931;-62
2021/12/28 17:46:15;;;;;;;30.40;17.50;;;;;;;-5.87;81.40;98489.71;434630;1311;143372;-61
2021/12/28 17:56:21;;;;;;;34.00;20.30;;;;;;;-5.80;81.47;98487.21;433497;1310;143187;-61
2021/12/28 18:06:28;;;;;;;31.90;20.70;;;;;;;-5.71;81.47;98477.88;433404;1313;143345;-62
2021/12/28 18:16:34;;;;;;;30.90;20.30;;;;;;;-5.62;81.53;98469.37;434526;1313;143575;-62
2021/12/28 18:26:38;;;;;;;;;;;;;;;-5.55;81.62;98462.95;434515;1313;144015;-61
2021/12/28 18:36:44;;;;;;;25.50;17.20;;;;;;;-5.47;81.72;98452.59;433032;1312;128957;-62
2021/12/28 18:46:50;;;;;;;29.30;19.30;;;;;;;-5.40;81.95;98440.34;426074;1313;143125;-60
2021/12/28 18:56:57;;;;;;;29.30;18.50;;;;;;;-5.33;82.06;98419.07;434421;1311;142628;-61
2021/12/28 19:07:01;;;;;;;;;;;;;;;-5.27;82.09;98414.52;434448;1313;143137;-65
2021/12/28 19:17:08;;;;;;;29.20;17.80;;;;;;;-5.19;82.11;98410.63;425776;1310;128792;-65
2021/12/28 19:27:15;;;;;;;28.10;17.10;;;;;;;-5.16;82.10;98398.97;434032;1310;144223;-65
2021/12/28 19:37:21;;;;;;;26.70;16.70;;;;;;;-5.12;82.27;98390.52;434792;1310;142090;-64
2021/12/28 19:47:28;;;;;;;20.90;14.10;;;;;;;-5.08;82.28;98368.95;430682;1314;145280;-63
2021/12/28 19:57:33;;;;;;;28.10;17.60;;;;;;;-5.06;82.40;98358.50;433893;1312;143498;-63
2021/12/28 20:07:40;;;;;;;21.40;15.10;;;;;;;-5.02;82.26;98369.01;432591;1309;143156;-63
2021/12/28 20:17:46;;;;;;;24.30;14.80;;;;;;;-4.99;82.18;98370.98;429819;1314;142888;-64
2021/12/28 20:27:50;;;;;;;;;;;;;;;-4.99;82.35;98358.85;417469;1314;142328;-62
2021/12/28 20:37:57;;;;;;;22.40;16.10;;;;;;;-5.02;82.23;98354.50;431187;1314;128797;-63
2021/12/28 20:48:03;;;;;;;21.30;14.60;;;;;;;-5.05;82.32;98357.96;430205;1313;184430;-66
2021/12/28 20:58:09;;;;;;;27.90;16.60;;;;;;;-5.09;82.39;98350.02;424486;1309;143321;-63
2021/12/28 21:08:14;;;;;;;;;;;;;;;-5.11;82.40;98341.19;431531;1313;142992;-63
2021/12/28 21:18:21;;;;;;;21.70;15.60;;;;;;;-5.12;82.37;98341.73;432186;1314;129301;-63
2021/12/28 21:28:27;;;;;;;28.90;15.80;;;;;;;-5.13;82.26;98357.77;433027;1309;143956;-63
2021/12/28 21:38:33;;;;;;;25.10;15.50;;;;;;;-5.10;82.49;98359.44;433117;1313;143735;-63
2021/12/28 21:48:38;;;;;;;25.10;16.30;;;;;;;-5.09;82.43;98346.43;432349;1313;142896;-66
2021/12/28 21:58:44;;;;;;;22.30;14.70;;;;;;;-5.11;82.36;98331.13;433720;1313;142508;-63
2021/12/28 22:08:52;;;;;;;28.30;17.70;;;;;;;-5.15;82.43;98327.61;434535;1313;143177;-62
2021/12/28 22:18:58;;;;;;;23.60;16.40;;;;;;;-5.15;82.36;98312.27;432440;1313;143456;-64
2021/12/28 22:29:04;;;;;;;28.50;17.10;;;;;;;-5.13;82.55;98304.19;434152;1313;199326;-62
2021/12/28 22:39:09;;;;;;;;;;;;;;;-5.12;82.52;98287.27;426875;1313;142724;-62
2021/12/28 22:49:15;;;;;;;26.40;16.70;;;;;;;-5.14;82.65;98277.27;418152;1314;128362;-64
2021/12/28 22:59:22;;;;;;;27.20;16.60;;;;;;;-5.14;82.90;98287.33;418068;1313;142963;-64
2021/12/28 23:09:27;;;;;;;24.80;15.00;;;;;;;-5.13;82.87;98294.30;427995;1313;143307;-63
2021/12/28 23:19:33;;;;;;;23.70;16.20;;;;;;;-5.09;82.79;98313.67;433227;1313;143373;-63
2021/12/28 23:29:39;;;;;;;24.80;15.30;;;;;;;-5.01;82.88;98316.06;433372;1313;143657;-63
2021/12/28 23:39:45;;;;;;;26.80;15.40;;;;;;;-4.95;82.77;98324.14;433707;1315;143588;-63
2021/12/28 23:49:51;;;;;;;28.60;16.90;;;;;;;-4.93;82.64;98318.79;434260;1313;143144;-61
2021/12/28 23:59:57;;;;;;;22.20;14.30;;;;;;;-5.00;82.48;98316.73;434576;1313;142309;-63
